Time;durP1;ratioP1;P1;durP2;ratioP2;P2;SDS_P1;SDS_P2;PMS_P1;PMS_P2;Temp;Humidity;BMP_temperature;BMP_pressure;BME280_temperature;BME280_humidity;BME280_pressure;Samples;Min_cycle;Max_cycle;Signal;HPM_P1;HPM_P2
2021/06/24 00:00:51;;;;;;;35.72;15.77;;;;;;;22.96;95.95;97139.13;4987164;28;20042;-60
2021/06/24 00:03:17;;;;;;;26.98;15.75;;;;;;;22.85;96.79;97158.44;4987401;28;20046;-68
2021/06/24 00:05:44;;;;;;;24.33;15.07;;;;;;;23.16;94.03;97184.94;4987072;28;20104;-68
2021/06/24 00:08:10;;;;;;;28.00;15.65;;;;;;;23.14;94.40;97170.47;4987213;28;20560;-59
2021/06/24 00:10:38;;;;;;;28.67;14.95;;;;;;;23.20;94.19;97168.69;4987376;28;20034;-67
2021/06/24 00:13:04;;;;;;;26.85;14.98;;;;;;;23.21;94.07;97167.44;4986772;28;20041;-59
2021/06/24 00:15:30;;;;;;;31.17;14.50;;;;;;;22.96;93.29;97153.25;4987139;28;20034;-68
2021/06/24 00:17:56;;;;;;;32.63;14.23;;;;;;;23.06;92.86;97163.47;5001695;28;20083;-68
2021/06/24 00:20:21;;;;;;;32.28;13.95;;;;;;;23.01;92.25;97164.00;4984954;28;20462;-59
2021/06/24 00:22:47;;;;;;;31.23;12.88;;;;;;;22.68;91.47;97108.91;4986792;28;20222;-68
2021/06/24 00:25:13;;;;;;;31.48;13.70;;;;;;;22.96;91.97;97153.25;4986200;28;20049;-62
2021/06/24 00:27:38;;;;;;;33.10;13.50;;;;;;;22.96;92.55;97164.56;4986742;28;20048;-62
2021/06/24 00:30:05;;;;;;;32.92;14.45;;;;;;;22.79;93.30;97160.22;4987369;28;20590;-60
2021/06/24 00:32:32;;;;;;;29.38;14.05;;;;;;;22.18;91.89;97053.84;4986686;28;20110;-69
2021/06/24 00:35:01;;;;;;;31.42;14.05;;;;;;;22.76;92.18;97147.00;4986820;28;20931;-60
2021/06/24 00:37:26;;;;;;;29.35;13.63;;;;;;;22.83;92.80;97155.25;4986018;28;20480;-61
2021/06/24 00:39:52;;;;;;;30.38;13.70;;;;;;;22.83;92.53;97155.25;5001155;28;20074;-68
2021/06/24 00:42:18;;;;;;;27.25;13.23;;;;;;;22.80;92.26;97158.97;4985653;28;20062;-68
2021/06/24 00:44:44;;;;;;;28.77;13.90;;;;;;;22.68;92.47;97149.25;4986156;28;20062;-68
2021/06/24 00:47:09;;;;;;;29.80;14.15;;;;;;;22.60;93.25;97147.88;5000619;28;20033;-68
2021/06/24 00:49:35;;;;;;;23.17;14.07;;;;;;;22.52;92.96;97162.63;4986754;28;20026;-67
2021/06/24 00:52:01;;;;;;;26.90;13.50;;;;;;;22.49;93.31;97159.41;4985967;28;20038;-69
2021/06/24 00:54:26;;;;;;;25.08;13.60;;;;;;;22.60;92.75;97158.38;4986648;28;20038;-67
2021/06/24 00:56:52;;;;;;;33.25;13.75;;;;;;;22.60;92.37;97152.72;4985915;28;20153;-59
2021/06/24 00:59:17;;;;;;;25.67;13.93;;;;;;;22.60;91.78;97153.50;4984952;28;20022;-67
2021/06/24 01:01:43;;;;;;;24.27;13.30;;;;;;;22.05;92.92;97089.69;4984229;28;20022;-59
2021/06/24 01:04:08;;;;;;;30.90;12.65;;;;;;;22.07;92.19;97132.34;4986352;28;20033;-59
2021/06/24 01:06:34;;;;;;;26.70;13.43;;;;;;;22.35;92.73;97154.16;4985953;28;20046;-67
2021/06/24 01:08:59;;;;;;;24.50;12.48;;;;;;;22.55;90.91;97167.38;4985605;28;20489;-59
2021/06/24 01:11:26;;;;;;;25.45;12.63;;;;;;;22.48;90.10;97169.13;4986421;28;20764;-69
2021/06/24 01:13:52;;;;;;;26.23;13.35;;;;;;;22.36;91.52;97163.44;4986187;28;20030;-67
2021/06/24 01:16:17;;;;;;;32.70;12.95;;;;;;;21.39;92.17;97023.75;4985421;28;20049;-69
2021/06/24 01:18:43;;;;;;;30.48;12.77;;;;;;;22.22;92.60;97161.00;5000560;28;20030;-69
2021/06/24 01:21:09;;;;;;;31.48;12.18;;;;;;;22.27;91.86;97158.41;4985846;28;20046;-69
2021/06/24 01:23:42;;;;;;;26.83;12.73;;;;;;;22.15;93.18;97150.69;4985686;28;20505;-59
2021/06/24 01:26:09;;;;;;;27.33;13.43;;;;;;;22.18;93.02;97149.81;4985195;28;20541;-60
2021/06/24 01:28:35;;;;;;;39.83;13.10;;;;;;;21.57;93.27;97064.38;4985615;28;20033;-62
2021/06/24 01:31:01;;;;;;;29.98;14.32;;;;;;;22.03;94.71;97142.97;4984830;28;20034;-69
2021/06/24 01:33:26;;;;;;;32.85;13.57;;;;;;;22.03;95.39;97142.97;5000508;28;20042;-68
2021/06/24 01:36:02;;;;;;;31.25;14.35;;;;;;;21.51;95.15;97043.59;4983944;28;20046;-68
2021/06/24 01:38:28;;;;;;;29.75;13.38;;;;;;;22.19;93.59;97140.09;4984097;28;20030;-68
2021/06/24 01:40:54;;;;;;;27.63;13.43;;;;;;;22.17;93.68;97148.22;4985263;28;20058;-62
2021/06/24 01:43:19;;;;;;;24.88;13.20;;;;;;;22.09;94.10;97152.47;5000120;28;20030;-59
2021/06/24 01:45:50;;;;;;;24.70;13.45;;;;;;;21.62;94.92;97100.50;4999512;28;20062;-62
2021/06/24 01:48:16;;;;;;;31.48;13.13;;;;;;;21.98;94.77;97157.59;4985062;28;20553;-61
2021/06/24 01:50:42;;;;;;;30.60;14.75;;;;;;;21.95;95.31;97157.69;4984882;28;20135;-69
2021/06/24 01:53:08;;;;;;;27.35;13.85;;;;;;;21.85;96.54;97153.09;4985734;28;20030;-68
2021/06/24 01:55:35;;;;;;;28.58;14.70;;;;;;;21.92;97.27;97161.38;4985182;28;20515;-60
2021/06/24 01:58:03;;;;;;;31.25;14.63;;;;;;;22.00;96.63;97162.78;5000137;28;20113;-60
2021/06/24 02:00:29;;;;;;;31.15;14.68;;;;;;;22.00;96.21;97163.56;4984880;28;20049;-69
2021/06/24 02:02:56;;;;;;;28.70;14.43;;;;;;;21.95;96.48;97163.31;4984987;28;20355;-69
2021/06/24 02:05:22;;;;;;;28.95;14.52;;;;;;;21.86;97.00;97155.47;4983069;28;20038;-61
2021/06/24 02:07:47;;;;;;;31.95;15.55;;;;;;;21.77;97.08;97124.28;4984771;28;20034;-68
2021/06/24 02:10:13;;;;;;;34.20;15.07;;;;;;;21.98;97.69;97160.41;4984957;28;20103;-68
2021/06/24 02:12:40;;;;;;;23.38;13.90;;;;;;;21.73;96.18;97112.28;4985062;28;20057;-60
2021/06/24 02:15:08;;;;;;;28.02;13.55;;;;;;;21.99;95.49;97181.75;4984419;28;20046;-68
2021/06/24 02:17:34;;;;;;;35.05;14.32;;;;;;;22.01;95.47;97134.13;4999352;28;20046;-61
2021/06/24 02:19:59;;;;;;;31.38;14.45;;;;;;;21.98;95.62;97134.22;4984568;28;20042;-60
2021/06/24 02:22:25;;;;;;;29.55;14.15;;;;;;;21.96;94.32;97131.84;4984359;28;20562;-60
2021/06/24 02:24:50;;;;;;;24.42;13.88;;;;;;;21.46;93.58;97044.13;4984775;28;20453;-69
2021/06/24 02:27:16;;;;;;;23.00;13.43;;;;;;;21.88;94.59;97110.69;4984012;28;20034;-65
2021/06/24 02:29:41;;;;;;;24.60;14.43;;;;;;;21.91;93.82;97123.13;4984839;28;20034;-60
2021/06/24 02:32:07;;;;;;;27.60;12.93;;;;;;;21.80;94.32;97111.31;4984461;28;20128;-61
2021/06/24 02:34:35;;;;;;;22.95;12.55;;;;;;;21.75;94.24;97107.00;4984884;28;20180;-69
2021/06/24 02:37:01;;;;;;;25.40;12.75;;;;;;;21.71;93.94;97108.31;4983582;28;20513;-60
2021/06/24 02:39:27;;;;;;;24.85;13.52;;;;;;;21.66;93.39;97106.81;4984586;28;20099;-68
2021/06/24 02:41:52;;;;;;;28.52;14.65;;;;;;;21.62;93.48;97110.97;4983978;28;20316;-68
2021/06/24 02:44:18;;;;;;;23.15;12.70;;;;;;;21.61;93.72;97112.22;4998849;28;20082;-60
2021/06/24 02:46:43;;;;;;;23.23;13.18;;;;;;;21.35;94.94;97099.97;4983931;28;20585;-60
2021/06/24 02:49:09;;;;;;;26.05;14.90;;;;;;;21.12;97.84;97117.00;4984257;28;20030;-62
2021/06/24 02:51:34;;;;;;;32.00;14.63;;;;;;;20.75;100.00;97120.25;4984871;28;20128;-69
2021/06/24 02:54:00;;;;;;;27.10;14.55;;;;;;;20.62;100.00;97122.13;4983058;28;20030;-59
2021/06/24 02:56:25;;;;;;;27.70;13.90;;;;;;;20.41;100.00;97126.16;4982448;28;20042;-65
2021/06/24 02:58:51;;;;;;;33.65;15.43;;;;;;;20.59;100.00;97139.88;4983937;28;20038;-69
2021/06/24 03:01:18;;;;;;;30.15;16.23;;;;;;;20.68;100.00;97142.91;4998711;28;20038;-62
2021/06/24 03:03:43;;;;;;;32.47;15.73;;;;;;;20.65;100.00;97143.78;4988138;28;20509;-61
2021/06/24 03:06:09;;;;;;;31.05;16.65;;;;;;;20.78;100.00;97141.88;4986317;28;20050;-68
2021/06/24 03:08:34;;;;;;;37.78;17.25;;;;;;;20.48;100.00;97066.13;4988306;28;20030;-68
2021/06/24 03:11:00;;;;;;;37.58;17.63;;;;;;;21.09;100.00;97142.47;4987801;28;20041;-66
2021/06/24 03:13:25;;;;;;;35.55;16.42;;;;;;;21.20;100.00;97140.97;5003163;28;20030;-60
2021/06/24 03:15:51;;;;;;;26.58;14.52;;;;;;;21.30;100.00;97139.94;4988006;28;20108;-68
2021/06/24 03:18:16;;;;;;;26.17;14.68;;;;;;;21.44;99.35;97145.22;4987820;28;20038;-59
2021/06/24 03:20:42;;;;;;;29.65;14.10;;;;;;;21.50;98.91;97146.28;4987832;28;20034;-63
2021/06/24 03:23:08;;;;;;;32.80;14.60;;;;;;;21.10;98.03;97060.31;4986576;28;20119;-60
2021/06/24 03:25:33;;;;;;;33.15;14.38;;;;;;;21.77;95.98;97146.84;5002122;28;20046;-62
2021/06/24 03:27:59;;;;;;;27.90;14.50;;;;;;;21.79;95.13;97133.09;4986601;28;20038;-61
2021/06/24 03:30:24;;;;;;;30.73;13.65;;;;;;;21.89;93.98;97137.66;4987524;28;20085;-68
2021/06/24 03:32:50;;;;;;;25.95;13.40;;;;;;;21.91;93.85;97129.56;4988072;28;20552;-69
2021/06/24 03:35:17;;;;;;;27.77;13.90;;;;;;;22.03;93.72;97145.78;4987280;28;20044;-69
2021/06/24 03:37:42;;;;;;;29.17;13.50;;;;;;;22.06;93.37;97136.44;4987603;28;20034;-68
2021/06/24 03:40:10;;;;;;;29.73;13.63;;;;;;;22.08;93.44;97133.94;4985219;28;20042;-62
2021/06/24 03:42:36;;;;;;;28.38;13.80;;;;;;;22.07;91.30;97098.50;4987317;28;20040;-68
2021/06/24 03:45:05;;;;;;;24.75;12.55;;;;;;;22.15;90.26;97101.91;4987236;28;20054;-62
2021/06/24 03:47:31;;;;;;;26.70;14.05;;;;;;;22.33;89.83;97105.84;4987417;28;20033;-61
2021/06/24 03:49:56;;;;;;;29.67;12.27;;;;;;;22.10;88.55;97051.66;4987506;28;20413;-68
2021/06/24 03:52:22;;;;;;;32.22;13.88;;;;;;;22.30;88.23;97072.84;5002093;28;20034;-69
2021/06/24 03:54:47;;;;;;;28.40;12.55;;;;;;;22.74;87.93;97132.53;4987733;28;20038;-70
2021/06/24 03:57:13;;;;;;;28.52;13.98;;;;;;;22.69;88.68;97127.44;4986970;28;20026;-69
2021/06/24 03:59:38;;;;;;;23.83;13.18;;;;;;;22.63;89.48;97132.06;5001995;28;20038;-69
2021/06/24 04:02:04;;;;;;;28.70;13.75;;;;;;;22.75;88.78;97136.94;4985021;28;20030;-69
2021/06/24 04:04:29;;;;;;;29.70;13.57;;;;;;;22.48;89.15;97090.06;4987697;28;20076;-68
2021/06/24 04:06:55;;;;;;;36.05;13.57;;;;;;;22.82;89.09;97122.59;4984922;28;20092;-68
2021/06/24 04:09:20;;;;;;;29.27;13.75;;;;;;;23.01;88.55;97127.28;4986975;28;20420;-62
2021/06/24 04:11:46;;;;;;;26.70;13.77;;;;;;;22.97;87.28;97092.69;4986539;28;20113;-69
2021/06/24 04:14:12;;;;;;;32.53;12.90;;;;;;;23.23;86.17;97120.53;4986417;28;20089;-63
2021/06/24 04:16:37;;;;;;;28.35;13.23;;;;;;;23.44;85.50;97116.25;4987018;28;20504;-61
2021/06/24 04:19:03;;;;;;;27.63;12.80;;;;;;;23.34;84.00;97094.75;4987204;28;20626;-61
2021/06/24 04:21:29;;;;;;;29.75;13.13;;;;;;;23.69;84.22;97121.88;4986736;28;20074;-60
2021/06/24 04:23:55;;;;;;;31.77;13.23;;;;;;;23.90;83.86;97115.47;4986752;28;20512;-60
2021/06/24 04:26:22;;;;;;;29.27;12.60;;;;;;;24.09;83.04;97117.28;4986731;28;20045;-62
2021/06/24 04:28:47;;;;;;;27.13;12.90;;;;;;;24.35;81.02;97118.78;4986886;28;20147;-60
2021/06/24 04:31:13;;;;;;;34.80;14.55;;;;;;;24.43;80.14;97111.59;4986608;28;20497;-60
2021/06/24 04:33:38;;;;;;;26.98;13.80;;;;;;;24.53;79.66;97101.91;4986686;28;20080;-61
2021/06/24 04:36:04;;;;;;;27.13;12.35;;;;;;;24.70;78.49;97100.50;4986799;28;20050;-60
2021/06/24 04:38:29;;;;;;;25.73;13.00;;;;;;;24.88;77.83;97105.50;4986806;28;20045;-68
2021/06/24 04:40:55;;;;;;;23.70;14.02;;;;;;;24.74;79.58;97101.16;4986173;28;20034;-60
2021/06/24 04:43:20;;;;;;;26.60;13.65;;;;;;;25.07;78.59;97113.63;5001029;28;20058;-61
2021/06/24 04:45:46;;;;;;;26.92;12.40;;;;;;;25.20;77.05;97117.19;4985539;28;20147;-68
2021/06/24 04:48:11;;;;;;;32.05;13.73;;;;;;;24.96;76.92;97069.97;4986183;28;20146;-70
2021/06/24 04:50:37;;;;;;;27.77;13.40;;;;;;;25.49;76.80;97116.06;5000081;28;20384;-70
2021/06/24 04:53:03;;;;;;;25.73;13.90;;;;;;;25.64;75.63;97111.41;4985310;28;20043;-60
2021/06/24 04:55:38;;;;;;;33.83;13.82;;;;;;;25.75;75.42;97111.75;4986470;28;20038;-68
2021/06/24 04:58:07;;;;;;;34.45;14.55;;;;;;;25.49;77.35;97113.22;4986465;28;20591;-60
2021/06/24 05:00:34;;;;;;;33.28;14.27;;;;;;;24.92;80.42;97129.63;4986091;28;20034;-68
2021/06/24 05:03:04;;;;;;;30.08;14.68;;;;;;;24.21;82.84;97090.97;4986015;28;20719;-61
2021/06/24 05:05:29;;;;;;;26.98;14.02;;;;;;;23.76;84.35;97008.47;4985413;28;20042;-62
2021/06/24 05:07:55;;;;;;;30.63;13.40;;;;;;;24.76;83.19;97114.84;4986167;28;20089;-70
2021/06/24 05:10:21;;;;;;;21.55;11.75;;;;;;;25.18;80.31;97125.34;4985652;28;20084;-62
2021/06/24 05:12:47;;;;;;;36.70;14.38;;;;;;;25.10;79.40;97083.59;4986449;28;20630;-62
2021/06/24 05:15:13;;;;;;;36.58;13.73;;;;;;;25.63;78.80;97126.81;4985544;28;20042;-60
2021/06/24 05:17:39;;;;;;;38.67;14.90;;;;;;;25.92;77.01;97133.72;4985580;28;20126;-61
2021/06/24 05:20:09;;;;;;;32.72;13.50;;;;;;;26.03;75.37;97127.59;4985304;28;20573;-61
2021/06/24 05:22:35;;;;;;;29.90;13.40;;;;;;;26.09;74.63;97105.84;4984367;28;20564;-69
2021/06/24 05:25:01;;;;;;;37.33;12.90;;;;;;;26.02;73.50;97069.25;4984804;28;20031;-68
2021/06/24 05:27:27;;;;;;;24.42;12.52;;;;;;;26.29;72.00;97072.06;4999507;28;20105;-62
2021/06/24 05:29:52;;;;;;;37.28;12.98;;;;;;;26.47;71.90;97094.81;4985705;28;20038;-69
2021/06/24 05:32:18;;;;;;;24.60;11.68;;;;;;;26.95;70.39;97122.28;4984985;28;20105;-69
2021/06/24 05:34:43;;;;;;;25.88;11.65;;;;;;;27.22;69.70;97122.19;4985310;28;20100;-69
2021/06/24 05:37:09;;;;;;;27.98;13.25;;;;;;;27.45;70.85;97127.22;4984689;28;20112;-70
2021/06/24 05:39:34;;;;;;;27.52;13.82;;;;;;;27.17;71.34;97077.34;4985263;28;20049;-60
2021/06/24 05:41:59;;;;;;;28.75;13.43;;;;;;;27.55;71.56;97134.44;4984684;28;20069;-69
2021/06/24 05:44:26;;;;;;;32.22;13.82;;;;;;;27.35;70.86;97080.13;4999398;28;20493;-60
2021/06/24 05:46:53;;;;;;;25.33;13.00;;;;;;;27.76;68.96;97121.22;4999346;28;20041;-69
2021/06/24 05:49:19;;;;;;;32.58;13.43;;;;;;;27.69;71.32;97122.38;4983642;28;20030;-69
2021/06/24 05:51:44;;;;;;;25.60;12.50;;;;;;;27.45;70.32;97033.31;4984591;28;20046;-69
2021/06/24 05:54:10;;;;;;;31.63;11.93;;;;;;;28.10;70.00;97124.38;4985001;28;20033;-69
2021/06/24 05:56:35;;;;;;;28.95;12.57;;;;;;;28.31;68.76;97127.41;4984764;28;20423;-70
2021/06/24 05:59:03;;;;;;;30.48;11.00;;;;;;;27.66;68.01;97060.69;4984977;28;20421;-61
2021/06/24 06:01:29;;;;;;;30.73;12.50;;;;;;;28.48;66.08;97134.25;4984694;28;20042;-60
2021/06/24 06:03:54;;;;;;;27.75;12.82;;;;;;;27.88;67.54;97078.28;4985141;28;20436;-66
2021/06/24 06:06:20;;;;;;;30.55;12.85;;;;;;;28.38;67.08;97144.13;4984781;28;20657;-61
2021/06/24 06:08:46;;;;;;;29.67;12.80;;;;;;;28.43;65.98;97147.09;4999764;28;20034;-61
2021/06/24 06:11:12;;;;;;;29.45;11.68;;;;;;;28.55;64.80;97143.22;4985080;28;20050;-62
2021/06/24 06:13:38;;;;;;;29.05;11.68;;;;;;;28.64;63.27;97133.81;4984335;28;20042;-60
2021/06/24 06:16:03;;;;;;;24.83;12.30;;;;;;;28.53;64.11;97139.28;4984234;28;20068;-68
2021/06/24 06:18:29;;;;;;;21.65;11.13;;;;;;;28.55;62.33;97099.69;4983864;28;20057;-64
2021/06/24 06:20:57;;;;;;;25.20;11.15;;;;;;;28.26;60.37;96999.84;4983749;28;20305;-67
2021/06/24 06:23:24;;;;;;;25.15;11.55;;;;;;;29.12;60.30;97084.72;4983549;28;20572;-61
2021/06/24 06:25:50;;;;;;;24.42;11.20;;;;;;;28.68;60.81;97011.78;4983780;28;20042;-69
2021/06/24 06:28:18;;;;;;;26.75;11.85;;;;;;;29.53;61.53;97137.03;4983919;28;20033;-58
2021/06/24 06:30:44;;;;;;;24.35;12.32;;;;;;;28.62;63.71;97057.31;4984086;28;20034;-58
2021/06/24 06:33:09;;;;;;;25.55;11.90;;;;;;;29.60;61.43;97142.38;4984373;28;20493;-62
2021/06/24 06:35:38;;;;;;;29.60;10.55;;;;;;;29.59;60.26;97140.78;4983997;28;20057;-70
2021/06/24 06:38:04;;;;;;;27.48;11.55;;;;;;;29.38;59.92;97079.97;4984135;28;20044;-65
2021/06/24 06:40:30;;;;;;;23.40;11.98;;;;;;;29.91;59.22;97111.19;4984395;28;20046;-58
2021/06/24 06:42:55;;;;;;;29.90;11.82;;;;;;;30.13;59.49;97140.06;4984062;28;20034;-63
2021/06/24 06:45:21;;;;;;;22.35;10.98;;;;;;;30.47;58.97;97136.44;4983787;28;20061;-68
2021/06/24 06:47:48;;;;;;;23.63;12.98;;;;;;;29.71;59.35;97114.00;4983987;28;20056;-60
2021/06/24 06:50:15;;;;;;;32.67;13.30;;;;;;;29.99;57.48;97108.72;4998558;28;20120;-61
2021/06/24 06:52:41;;;;;;;29.90;11.15;;;;;;;29.88;56.19;97103.63;4998894;28;20065;-59
2021/06/24 06:55:07;;;;;;;25.95;12.10;;;;;;;30.18;57.28;97118.56;4983773;28;20551;-60
2021/06/24 06:57:33;;;;;;;33.60;11.90;;;;;;;30.42;57.86;97134.28;4984400;28;20120;-67
2021/06/24 06:59:58;;;;;;;19.63;11.60;;;;;;;30.19;57.53;97109.50;4983639;28;20026;-60
2021/06/24 07:02:23;;;;;;;29.20;11.18;;;;;;;30.35;56.08;97134.69;4983328;28;20112;-61
2021/06/24 07:04:49;;;;;;;26.75;10.32;;;;;;;30.52;54.12;97107.13;4983552;28;20108;-60
2021/06/24 07:07:15;;;;;;;31.42;9.63;;;;;;;30.77;49.54;97085.59;4982948;28;20567;-62
2021/06/24 07:09:41;;;;;;;27.10;9.90;;;;;;;31.33;49.06;97138.50;4981737;28;20030;-66
2021/06/24 07:12:08;;;;;;;30.83;9.88;;;;;;;31.03;48.44;97063.47;4983106;28;20038;-62
2021/06/24 07:14:33;;;;;;;29.70;9.68;;;;;;;31.88;48.43;97144.72;4983901;28;20325;-59
2021/06/24 07:16:59;;;;;;;37.42;13.68;;;;;;;31.69;47.70;97091.91;4983296;28;20141;-69
2021/06/24 07:19:24;;;;;;;32.95;11.27;;;;;;;32.13;47.84;97149.56;4998876;28;20030;-66
2021/06/24 07:21:50;;;;;;;26.60;10.45;;;;;;;31.93;49.09;97152.56;4983631;28;20470;-69
2021/06/24 07:24:15;;;;;;;33.35;9.82;;;;;;;31.77;48.51;97075.81;4983723;28;20031;-69
2021/06/24 07:26:41;;;;;;;23.95;10.20;;;;;;;31.51;48.15;97103.75;4982953;28;20050;-67
2021/06/24 07:29:07;;;;;;;27.77;10.02;;;;;;;31.76;48.09;97137.28;4983851;28;20026;-66
2021/06/24 07:31:33;;;;;;;26.17;9.90;;;;;;;31.81;46.91;97110.75;4985339;28;20043;-65
2021/06/24 07:33:58;;;;;;;26.55;10.55;;;;;;;31.41;47.35;97019.31;4983253;28;20129;-61
2021/06/24 07:37:37;;;;;;;28.42;11.05;;;;;;;32.06;47.89;97104.16;5099357;27;1367596;-67
2021/06/24 07:40:07;;;;;;;27.40;10.00;;;;;;;32.01;47.40;97096.34;5122232;27;20043;-64
2021/06/24 07:42:32;;;;;;;28.90;10.57;;;;;;;32.29;47.55;97105.88;5122039;27;20110;-61
2021/06/24 07:44:58;;;;;;;35.75;10.63;;;;;;;32.04;46.96;97030.16;5121734;27;20114;-61
2021/06/24 07:47:23;;;;;;;28.20;11.38;;;;;;;32.74;47.03;97136.34;5121370;27;20413;-64
2021/06/24 07:49:49;;;;;;;26.77;11.07;;;;;;;32.79;46.37;97132.72;5120839;28;20545;-60
2021/06/24 07:52:15;;;;;;;27.55;10.95;;;;;;;32.11;47.40;97084.13;5121017;27;20217;-65
2021/06/24 07:54:40;;;;;;;21.73;9.80;;;;;;;32.55;47.27;97100.78;5121898;27;20039;-65
2021/06/24 07:57:06;;;;;;;28.10;10.10;;;;;;;32.86;46.53;97128.56;5121162;27;20039;-65
2021/06/24 07:59:34;;;;;;;23.85;10.35;;;;;;;32.96;46.14;97116.34;5121938;27;20574;-62
2021/06/24 08:01:59;;;;;;;30.92;11.15;;;;;;;32.97;45.61;97097.03;5120756;27;20032;-63
2021/06/24 08:04:24;;;;;;;35.70;10.60;;;;;;;33.40;44.75;97115.69;5121414;27;20043;-60
2021/06/24 08:06:52;;;;;;;24.67;11.38;;;;;;;33.04;44.85;97074.34;5121069;27;20042;-59
2021/06/24 08:09:17;;;;;;;31.63;11.02;;;;;;;32.12;44.35;96901.44;5119477;28;20058;-65
2021/06/24 08:11:43;;;;;;;27.55;10.15;;;;;;;33.72;42.82;97123.53;5120949;27;20031;-61
2021/06/24 08:14:08;;;;;;;22.15;9.93;;;;;;;33.11;43.78;97122.66;5119539;28;20066;-65
2021/06/24 08:16:35;;;;;;;28.98;12.80;;;;;;;32.39;44.83;97038.41;5100647;28;20036;-63
2021/06/24 08:19:01;;;;;;;29.88;14.60;;;;;;;33.23;45.16;97121.38;5100326;28;20162;-63
2021/06/24 08:21:26;;;;;;;21.33;10.70;;;;;;;33.24;45.02;97122.16;5101161;28;20028;-60
2021/06/24 08:23:52;;;;;;;27.83;10.68;;;;;;;33.23;44.53;97074.63;5100756;28;20047;-62
2021/06/24 08:26:18;;;;;;;32.47;9.70;;;;;;;33.23;44.40;97114.84;5100482;28;20036;-60
2021/06/24 08:28:43;;;;;;;22.35;10.00;;;;;;;33.53;44.31;97108.09;5100530;28;20039;-61
2021/06/24 08:31:09;;;;;;;25.10;10.20;;;;;;;33.70;41.79;97108.88;5100079;28;20059;-61
2021/06/24 08:33:34;;;;;;;20.88;9.98;;;;;;;33.77;41.32;97106.81;5100530;28;20036;-61
2021/06/24 08:36:00;;;;;;;23.52;10.02;;;;;;;33.40;41.21;97044.63;5099582;28;20039;-58
2021/06/24 08:38:26;;;;;;;24.55;9.63;;;;;;;33.79;39.49;97107.84;5100530;28;20032;-60
2021/06/24 08:40:55;;;;;;;29.33;11.85;;;;;;;33.31;39.75;97087.16;5098766;28;20525;-61
2021/06/24 08:43:21;;;;;;;23.95;9.45;;;;;;;33.39;41.11;97114.88;5100255;28;20028;-63
2021/06/24 08:45:46;;;;;;;23.85;10.27;;;;;;;33.32;40.47;97072.28;5099770;28;20665;-64
2021/06/24 08:48:16;;;;;;;24.65;9.65;;;;;;;33.55;39.56;97114.13;5090940;28;20032;-60
2021/06/24 08:50:44;;;;;;;22.73;10.30;;;;;;;33.84;39.46;97112.00;5084406;28;20060;-62
2021/06/24 08:53:09;;;;;;;16.17;7.70;;;;;;;33.24;38.82;97108.59;5086328;28;20184;-60
2021/06/24 08:55:43;;;;;;;14.55;8.00;;;;;;;32.84;39.73;97024.97;5085990;28;21017;-60
2021/06/24 08:58:09;;;;;;;48.60;33.60;;;;;;;33.57;40.05;97104.97;5086153;28;20032;-66
2021/06/24 09:00:35;;;;;;;22.52;8.05;;;;;;;33.86;39.36;97115.16;5085543;28;20500;-63
2021/06/24 09:03:18;;;;;;;20.98;9.35;;;;;;;33.94;40.19;97058.72;5083854;28;20055;-62
2021/06/24 09:06:02;;;;;;;;;;;;;;;33.75;39.62;97110.97;5096832;28;20038;-60
2021/06/24 09:08:54;;;;;;;16.15;7.60;;;;;;;33.01;40.75;97103.31;5106259;28;19923;-61
2021/06/24 09:11:28;;;;;;;17.90;7.47;;;;;;;33.21;38.81;97095.25;5103899;28;20570;-60
2021/06/24 09:14:12;;;;;;;15.27;7.95;;;;;;;33.12;39.42;97092.63;5105001;28;20039;-62
2021/06/24 09:16:41;;;;;;;21.23;8.50;;;;;;;33.22;38.35;97061.56;5087211;28;20575;-58
2021/06/24 09:19:21;;;;;;;20.05;7.28;;;;;;;32.98;39.43;97101.47;5085693;28;20453;-65
2021/06/24 09:21:54;;;;;;;19.02;7.65;;;;;;;33.50;39.41;97083.28;5083725;28;20597;-68
2021/06/24 09:24:27;;;;;;;10.70;6.40;;;;;;;33.50;38.06;97094.78;5085583;28;20057;-65
2021/06/24 09:26:54;;;;;;;20.33;8.20;;;;;;;33.27;39.58;97093.19;5085404;28;20552;-65
2021/06/24 09:29:20;;;;;;;14.60;7.50;;;;;;;33.74;38.26;97066.28;5085935;28;20042;-64
2021/06/24 09:31:57;;;;;;;21.23;7.18;;;;;;;34.28;37.58;97083.19;5085887;28;20028;-59
2021/06/24 09:34:23;;;;;;;16.20;8.05;;;;;;;33.63;37.58;97086.44;5084818;28;20406;-67
2021/06/24 09:36:53;;;;;;;14.55;7.68;;;;;;;33.74;37.95;97074.13;5084831;28;20056;-63
2021/06/24 09:39:25;;;;;;;24.50;9.27;;;;;;;33.95;38.13;97077.53;5085472;28;20032;-60
2021/06/24 09:41:58;;;;;;;17.52;7.70;;;;;;;33.40;38.76;97076.22;5083871;28;20425;-66
2021/06/24 09:44:25;;;;;;;19.52;7.90;;;;;;;34.07;38.40;97073.28;5085597;28;20109;-62
2021/06/24 09:46:51;;;;;;;17.15;7.28;;;;;;;34.45;37.59;97055.94;5083285;28;20495;-62
2021/06/24 09:49:28;;;;;;;18.33;7.03;;;;;;;34.97;36.47;97070.34;5085008;28;20521;-62
2021/06/24 09:51:56;;;;;;;18.48;8.40;;;;;;;34.99;36.64;97051.22;5083998;28;20028;-60
2021/06/24 09:54:30;;;;;;;18.98;8.20;;;;;;;35.05;35.73;97037.56;5082160;28;20279;-63
2021/06/24 09:56:57;;;;;;;15.20;8.15;;;;;;;35.28;36.14;97061.25;5082805;28;20035;-60
2021/06/24 09:59:40;;;;;;;17.17;8.00;;;;;;;35.58;35.74;97073.59;5083835;28;20071;-63
2021/06/24 10:02:14;;;;;;;19.00;8.13;;;;;;;35.74;36.04;97075.53;5085088;28;20035;-60
2021/06/24 10:04:42;;;;;;;18.35;8.13;;;;;;;35.76;34.63;97066.38;5086228;28;20036;-64
2021/06/24 10:07:11;;;;;;;20.42;8.85;;;;;;;35.61;35.73;97066.75;5104695;28;20036;-60
2021/06/24 10:09:39;;;;;;;19.58;7.63;;;;;;;35.44;35.77;97033.63;5103141;28;20428;-63
2021/06/24 10:12:06;;;;;;;20.23;8.50;;;;;;;35.76;35.02;97051.94;5104668;28;20051;-62
2021/06/24 10:14:31;;;;;;;19.92;7.20;;;;;;;35.00;34.63;97043.34;5104112;28;20421;-63
2021/06/24 10:16:59;;;;;;;20.80;7.60;;;;;;;35.22;35.50;97045.31;5084050;28;20137;-64
2021/06/24 10:19:27;;;;;;;15.70;8.05;;;;;;;35.68;35.25;97056.75;5082913;28;20024;-61
2021/06/24 10:21:57;;;;;;;15.98;7.72;;;;;;;35.51;33.55;96993.47;5084231;28;20395;-61
2021/06/24 10:24:31;;;;;;;18.80;7.20;;;;;;;35.64;31.46;97053.34;5085868;28;20040;-63
2021/06/24 10:26:59;;;;;;;21.08;7.55;;;;;;;35.27;31.57;97053.13;5084104;28;20064;-63
2021/06/24 10:29:37;;;;;;;15.77;7.22;;;;;;;35.28;32.60;97043.94;5083096;28;20035;-61
2021/06/24 10:32:19;;;;;;;22.83;8.18;;;;;;;35.27;32.22;97048.13;5084598;28;20043;-64
2021/06/24 10:34:49;;;;;;;15.53;7.47;;;;;;;35.68;32.25;97043.09;5084600;28;20035;-64
2021/06/24 10:37:21;;;;;;;16.17;7.88;;;;;;;35.78;32.02;97044.31;5083645;28;20047;-64
2021/06/24 10:39:47;;;;;;;19.67;7.45;;;;;;;36.02;31.60;97038.59;5084952;28;20044;-63
2021/06/24 10:42:15;;;;;;;17.08;7.15;;;;;;;35.67;30.74;97030.00;5084527;28;20120;-63
2021/06/24 10:44:44;;;;;;;22.88;7.43;;;;;;;35.67;31.55;97038.66;5084500;28;20498;-63
2021/06/24 10:47:10;;;;;;;22.17;7.22;;;;;;;35.86;31.91;97030.09;5084006;28;20036;-62
2021/06/24 10:49:35;;;;;;;17.58;8.35;;;;;;;36.04;32.50;97030.16;5084093;28;20039;-62
2021/06/24 10:52:26;;;;;;;16.00;8.40;;;;;;;36.24;32.48;97020.22;5083937;28;20873;-64
2021/06/24 10:54:56;;;;;;;21.25;7.03;;;;;;;36.64;30.13;97016.31;5083774;28;20048;-63
2021/06/24 10:57:52;;;;;;;17.83;6.80;;;;;;;36.52;29.98;97022.78;5083494;28;20467;-64
2021/06/24 11:00:37;;;;;;;16.65;7.15;;;;;;;36.67;29.95;97011.56;5066773;28;20044;-63
2021/06/24 11:03:05;;;;;;;20.90;7.50;;;;;;;36.80;30.04;96991.44;5084006;28;20526;-65
2021/06/24 11:05:42;;;;;;;20.35;7.32;;;;;;;37.06;29.42;97026.22;5088253;28;20177;-61
2021/06/24 11:08:12;;;;;;;17.05;7.68;;;;;;;35.52;30.98;96943.13;5102244;28;20051;-64
2021/06/24 11:10:58;;;;;;;16.08;7.20;;;;;;;35.63;31.93;97012.19;5103238;28;20028;-60
2021/06/24 11:13:42;;;;;;;17.70;7.60;;;;;;;35.94;30.75;97020.31;5102336;28;20079;-60
2021/06/24 11:16:27;;;;;;;15.10;7.38;;;;;;;36.52;31.21;97017.78;5088844;28;20597;-62
2021/06/24 11:19:08;;;;;;;17.35;7.68;;;;;;;36.90;30.37;97013.59;5083316;28;20066;-64
2021/06/24 11:21:33;;;;;;;14.18;7.25;;;;;;;37.28;30.61;97015.13;5082930;28;20059;-62